Time;durP1;ratioP1;P1;durP2;ratioP2;P2;SDS_P1;SDS_P2;PMS_P1;PMS_P2;Temp;Humidity;BMP_temperature;BMP_pressure;BME280_temperature;BME280_humidity;BME280_pressure;Samples;Min_cycle;Max_cycle;Signal;HPM_P1;HPM_P2
2024/01/05 00:00:08;;;;;;;14.40;7.18;;;4.40;99.90;;;;;;6301904;22;20384;-83
2024/01/05 00:02:34;;;;;;;21.67;9.27;;;4.40;99.90;;;;;;6302289;22;20007;-84
2024/01/05 00:05:00;;;;;;;15.55;7.57;;;4.50;99.90;;;;;;6300844;22;20103;-84
2024/01/05 00:07:25;;;;;;;20.02;8.50;;;4.40;99.90;;;;;;6276202;22;20053;-84
2024/01/05 00:09:51;;;;;;;16.40;7.18;;;4.50;99.90;;;;;;6302190;22;20053;-82
2024/01/05 00:12:17;;;;;;;28.00;9.25;;;4.40;99.90;;;;;;6302091;22;20121;-82
2024/01/05 00:14:42;;;;;;;21.52;8.70;;;4.40;99.90;;;;;;6301700;22;20023;-82
2024/01/05 00:17:08;;;;;;;16.42;6.97;;;4.40;99.90;;;;;;6302145;22;20102;-82
2024/01/05 00:19:34;;;;;;;20.58;8.75;;;4.40;99.90;;;;;;6304338;22;20007;-83
2024/01/05 00:22:02;;;;;;;16.05;7.43;;;4.40;99.90;;;;;;6302296;22;20019;-82
2024/01/05 00:24:28;;;;;;;13.70;8.00;;;4.40;99.90;;;;;;6302373;22;20018;-82
2024/01/05 00:26:53;;;;;;;25.48;9.02;;;4.40;99.90;;;;;;6276180;22;20038;-82
2024/01/05 00:29:19;;;;;;;19.52;8.43;;;4.40;99.90;;;;;;6301380;22;20027;-82
2024/01/05 00:31:45;;;;;;;19.20;7.97;;;4.30;99.90;;;;;;6301788;22;20562;-82
2024/01/05 00:34:10;;;;;;;16.58;8.65;;;4.30;99.90;;;;;;6302179;22;20027;-82
2024/01/05 00:36:36;;;;;;;21.83;8.65;;;4.40;99.90;;;;;;6301809;22;20019;-83
2024/01/05 00:39:02;;;;;;;18.10;8.55;;;4.40;99.90;;;;;;6276338;22;20015;-82
2024/01/05 00:41:28;;;;;;;19.92;8.27;;;4.40;99.90;;;;;;6301802;22;20458;-82
2024/01/05 00:43:53;;;;;;;23.05;7.80;;;4.40;99.90;;;;;;6301370;22;20047;-83
2024/01/05 00:46:19;;;;;;;20.25;8.52;;;4.40;99.90;;;;;;6303337;22;20015;-83
2024/01/05 00:48:44;;;;;;;18.50;7.63;;;4.40;99.90;;;;;;6275588;22;20019;-83
2024/01/05 00:51:10;;;;;;;19.17;8.45;;;4.40;99.90;;;;;;6301247;22;20034;-83
2024/01/05 00:53:36;;;;;;;21.83;8.18;;;4.40;99.90;;;;;;6300422;22;20026;-83
2024/01/05 00:56:03;;;;;;;18.15;8.23;;;4.30;99.90;;;;;;6300843;22;20733;-83
2024/01/05 00:58:29;;;;;;;15.50;8.13;;;4.30;99.90;;;;;;6302448;22;20379;-83
2024/01/05 01:00:54;;;;;;;21.23;8.43;;;4.20;99.90;;;;;;6300541;22;20060;-82
2024/01/05 01:03:20;;;;;;;18.65;7.72;;;4.20;99.90;;;;;;6274623;22;20027;-83
2024/01/05 01:05:46;;;;;;;18.20;8.20;;;4.30;99.90;;;;;;6299770;22;20452;-83
2024/01/05 01:08:12;;;;;;;16.25;8.00;;;4.30;99.90;;;;;;6300398;22;20046;-83
2024/01/05 01:10:38;;;;;;;17.33;8.65;;;4.30;99.90;;;;;;6274411;22;20015;-83
2024/01/05 01:13:05;;;;;;;25.80;9.00;;;4.30;99.90;;;;;;6299987;22;20102;-83
2024/01/05 01:15:31;;;;;;;21.33;8.70;;;4.30;99.90;;;;;;6274495;22;20289;-83
2024/01/05 01:17:56;;;;;;;16.27;7.22;;;4.40;99.90;;;;;;6300277;22;20015;-83
2024/01/05 01:20:22;;;;;;;16.17;8.32;;;4.20;99.90;;;;;;6300204;22;20634;-82
2024/01/05 01:22:48;;;;;;;21.98;8.45;;;4.20;99.90;;;;;;6299689;22;20058;-83
2024/01/05 01:25:14;;;;;;;16.55;8.77;;;4.10;99.90;;;;;;6300084;22;20015;-83
2024/01/05 01:27:39;;;;;;;18.17;8.25;;;4.20;99.90;;;;;;6299809;22;20018;-83
2024/01/05 01:30:08;;;;;;;18.92;7.85;;;4.20;99.90;;;;;;6299988;22;20090;-83
2024/01/05 01:32:33;;;;;;;19.55;8.60;;;4.20;99.90;;;;;;6300206;22;20019;-84
2024/01/05 01:34:59;;;;;;;24.95;8.95;;;4.30;99.90;;;;;;6274304;22;20803;-83
2024/01/05 01:37:25;;;;;;;28.17;8.98;;;4.30;99.90;;;;;;6300226;22;20104;-83
2024/01/05 01:39:51;;;;;;;17.00;7.45;;;4.30;99.90;;;;;;6274171;22;20046;-83
2024/01/05 01:42:17;;;;;;;17.35;7.75;;;4.30;99.90;;;;;;6274180;22;20052;-82
2024/01/05 01:44:42;;;;;;;15.93;7.60;;;4.30;99.90;;;;;;6302092;22;20031;-83
2024/01/05 01:47:08;;;;;;;20.08;7.78;;;4.20;99.90;;;;;;6300328;22;20265;-81
2024/01/05 01:49:35;;;;;;;17.02;8.05;;;4.20;99.90;;;;;;6302112;22;20022;-82
2024/01/05 01:52:01;;;;;;;20.48;7.85;;;4.20;99.90;;;;;;6274543;22;20022;-81
2024/01/05 01:54:27;;;;;;;21.25;8.57;;;4.20;99.90;;;;;;6301669;22;20036;-81
2024/01/05 01:56:53;;;;;;;15.10;7.90;;;4.20;99.90;;;;;;6299598;22;20012;-80
2024/01/05 01:59:19;;;;;;;19.77;8.00;;;4.30;99.90;;;;;;6300311;22;20065;-80
2024/01/05 02:01:46;;;;;;;16.52;7.78;;;4.30;99.90;;;;;;6299871;22;20011;-79
2024/01/05 02:04:18;;;;;;;16.08;8.07;;;4.30;99.90;;;;;;6300109;22;20026;-80
2024/01/05 02:06:51;;;;;;;17.90;8.18;;;4.20;99.90;;;;;;6300245;22;20015;-80
2024/01/05 02:09:18;;;;;;;17.58;8.35;;;4.20;99.90;;;;;;6274135;22;20019;-80
2024/01/05 02:11:49;;;;;;;16.27;7.90;;;4.30;99.90;;;;;;6299240;22;20018;-80
2024/01/05 02:14:25;;;;;;;15.27;7.40;;;4.30;99.90;;;;;;6300850;22;20331;-80
2024/01/05 02:17:16;;;;;;;11.25;7.13;;;4.20;99.90;;;;;;6299872;22;20012;-79
2024/01/05 02:19:58;;;;;;;16.40;8.10;;;4.20;99.90;;;;;;6299486;22;20020;-79
2024/01/05 02:22:31;;;;;;;14.15;7.50;;;4.20;99.90;;;;;;6299776;22;20007;-79
2024/01/05 02:25:09;;;;;;;17.90;7.00;;;4.10;99.90;;;;;;6302013;22;20026;-79
2024/01/05 02:27:57;;;;;;;15.10;7.80;;;4.20;99.90;;;;;;6299702;22;20102;-80
2024/01/05 02:30:26;;;;;;;11.48;6.82;;;4.10;99.90;;;;;;6298226;22;20011;-79
2024/01/05 02:33:00;;;;;;;17.52;8.30;;;4.20;99.90;;;;;;6301973;22;20015;-79
2024/01/05 02:35:29;;;;;;;19.92;8.38;;;4.20;99.90;;;;;;6301561;22;20011;-79
2024/01/05 02:37:56;;;;;;;17.77;8.35;;;4.20;99.90;;;;;;6296756;22;20015;-79
2024/01/05 02:40:22;;;;;;;17.13;7.30;;;4.10;99.90;;;;;;6298984;22;20030;-79
2024/01/05 02:42:47;;;;;;;18.27;7.88;;;4.20;99.90;;;;;;6273593;22;20052;-78
2024/01/05 02:45:20;;;;;;;15.85;7.80;;;4.20;99.90;;;;;;6299870;22;20022;-79
2024/01/05 02:47:49;;;;;;;15.13;7.65;;;4.10;99.90;;;;;;6299411;22;20078;-79
2024/01/05 02:50:17;;;;;;;18.13;8.05;;;4.20;99.90;;;;;;6299480;22;20106;-78
2024/01/05 02:52:43;;;;;;;16.88;9.38;;;4.30;99.90;;;;;;6299408;22;20011;-79
2024/01/05 02:55:12;;;;;;;15.55;8.88;;;4.20;99.90;;;;;;6298765;22;20137;-79
2024/01/05 02:57:39;;;;;;;15.55;7.90;;;4.20;99.90;;;;;;6299336;22;20019;-78
2024/01/05 03:00:05;;;;;;;12.45;7.38;;;4.30;99.90;;;;;;6299284;22;20015;-79
2024/01/05 03:02:31;;;;;;;13.55;8.27;;;4.20;99.90;;;;;;6273559;22;20403;-77
2024/01/05 03:04:58;;;;;;;16.90;8.57;;;4.20;99.90;;;;;;6273165;22;20023;-77
2024/01/05 03:07:24;;;;;;;16.40;8.52;;;4.20;99.90;;;;;;6299313;22;20027;-76
2024/01/05 03:09:50;;;;;;;12.95;8.27;;;4.20;99.90;;;;;;6299748;22;20011;-76
2024/01/05 03:12:19;;;;;;;13.32;7.65;;;4.20;99.90;;;;;;6301744;22;20011;-76
2024/01/05 03:14:45;;;;;;;11.45;7.55;;;4.20;99.90;;;;;;6299724;22;20029;-77
2024/01/05 03:17:11;;;;;;;15.40;7.57;;;4.20;99.90;;;;;;6300952;22;20289;-78
2024/01/05 03:19:37;;;;;;;15.63;8.20;;;4.10;99.90;;;;;;6299534;22;20011;-79
2024/01/05 03:22:03;;;;;;;15.07;7.43;;;4.20;99.90;;;;;;6298740;22;20471;-78
2024/01/05 03:24:29;;;;;;;14.85;8.15;;;4.20;99.90;;;;;;6274067;22;20353;-79
2024/01/05 03:26:55;;;;;;;13.23;7.95;;;4.20;99.90;;;;;;6299499;22;20121;-80
2024/01/05 03:29:44;;;;;;;15.15;8.15;;;4.30;99.90;;;;;;6299902;22;20015;-80
2024/01/05 03:32:11;;;;;;;12.75;7.55;;;4.30;99.90;;;;;;6217566;22;20015;-79
2024/01/05 03:34:39;;;;;;;15.43;8.55;;;4.20;99.90;;;;;;6242804;22;20019;-80
2024/01/05 03:37:35;;;;;;;13.38;7.47;;;4.30;99.90;;;;;;6242850;22;20101;-80
2024/01/05 03:40:24;;;;;;;14.20;8.07;;;4.20;99.90;;;;;;6224500;22;20344;-79
2024/01/05 03:43:14;;;;;;;15.55;7.68;;;4.30;99.90;;;;;;6268691;22;20450;-79
2024/01/05 03:45:58;;;;;;;14.57;8.13;;;4.30;99.90;;;;;;6212283;23;20103;-79
2024/01/05 03:48:40;;;;;;;15.35;7.70;;;4.40;99.90;;;;;;6236598;23;20020;-79
2024/01/05 03:51:05;;;;;;;14.85;7.80;;;4.40;99.90;;;;;;6186407;23;20016;-79
2024/01/05 03:53:35;;;;;;;13.88;7.90;;;4.30;99.90;;;;;;6187274;23;20046;-79
2024/01/05 03:56:04;;;;;;;12.40;7.95;;;4.30;99.90;;;;;;6238213;23;20023;-79
2024/01/05 03:58:31;;;;;;;13.95;8.38;;;4.40;99.90;;;;;;6211251;23;20012;-80
2024/01/05 04:00:58;;;;;;;15.50;9.23;;;4.30;99.90;;;;;;6212762;23;20063;-79
2024/01/05 04:03:23;;;;;;;16.13;8.50;;;4.20;99.90;;;;;;6186932;23;20518;-79
2024/01/05 04:05:49;;;;;;;12.48;8.63;;;4.40;99.90;;;;;;6212094;23;20102;-80
2024/01/05 04:08:15;;;;;;;16.42;9.07;;;4.30;99.90;;;;;;6212486;23;20347;-81
2024/01/05 04:10:41;;;;;;;17.27;9.13;;;4.30;99.90;;;;;;6212633;23;20012;-80
2024/01/05 04:13:10;;;;;;;12.20;8.25;;;4.40;99.90;;;;;;6213192;23;20167;-81
2024/01/05 04:15:36;;;;;;;14.00;8.15;;;4.40;99.90;;;;;;6224230;22;20015;-81
2024/01/05 04:18:02;;;;;;;18.08;9.88;;;4.40;99.90;;;;;;6301041;22;20019;-80
2024/01/05 04:20:28;;;;;;;19.80;9.57;;;4.40;99.90;;;;;;6300731;22;20017;-80
2024/01/05 04:22:53;;;;;;;15.23;9.35;;;4.40;99.90;;;;;;6300709;22;20012;-81
2024/01/05 04:25:19;;;;;;;20.52;9.90;;;4.50;99.90;;;;;;6275144;22;20015;-81
2024/01/05 04:27:46;;;;;;;14.95;8.80;;;4.50;99.90;;;;;;6300968;22;20015;-82
2024/01/05 04:30:11;;;;;;;13.63;8.98;;;4.40;99.90;;;;;;6301316;22;20022;-81
2024/01/05 04:32:37;;;;;;;15.02;8.52;;;4.50;99.90;;;;;;6275570;22;20087;-82
2024/01/05 04:35:03;;;;;;;17.83;9.43;;;4.40;99.90;;;;;;6300640;22;20015;-82
2024/01/05 04:37:29;;;;;;;13.68;8.23;;;4.50;99.90;;;;;;6275246;22;20019;-83
2024/01/05 04:39:55;;;;;;;14.50;7.90;;;4.40;99.90;;;;;;6301040;22;20076;-80
2024/01/05 04:42:21;;;;;;;15.00;8.35;;;4.50;99.90;;;;;;6300998;22;20118;-80
2024/01/05 04:44:47;;;;;;;15.25;9.73;;;4.50;99.90;;;;;;6301550;22;20094;-81
2024/01/05 04:47:12;;;;;;;13.57;8.82;;;4.50;99.90;;;;;;6301246;22;20068;-81
2024/01/05 04:49:38;;;;;;;14.80;8.93;;;4.50;99.90;;;;;;6300659;22;20019;-81
2024/01/05 04:52:04;;;;;;;17.63;9.25;;;4.50;99.90;;;;;;6301508;22;20072;-80
2024/01/05 04:54:30;;;;;;;16.35;9.20;;;4.50;99.90;;;;;;6302908;22;20420;-81
2024/01/05 04:56:55;;;;;;;14.32;9.18;;;4.50;99.90;;;;;;6301101;22;20021;-80
2024/01/05 04:59:22;;;;;;;15.80;9.45;;;4.50;99.90;;;;;;6300783;22;20090;-81
2024/01/05 05:01:48;;;;;;;19.08;9.82;;;4.60;99.90;;;;;;6300510;22;20015;-81
2024/01/05 05:04:16;;;;;;;15.70;8.75;;;4.50;99.90;;;;;;6300076;22;20072;-81
2024/01/05 05:06:41;;;;;;;15.73;9.10;;;4.50;99.90;;;;;;6300379;22;20023;-82
2024/01/05 05:09:08;;;;;;;14.85;9.13;;;4.50;99.90;;;;;;6300324;22;20011;-81
2024/01/05 05:11:34;;;;;;;18.45;9.57;;;4.50;99.90;;;;;;6300309;22;20483;-83
2024/01/05 05:14:00;;;;;;;17.15;10.02;;;4.50;99.90;;;;;;6300304;22;20038;-82
2024/01/05 05:16:26;;;;;;;14.65;8.75;;;4.50;99.90;;;;;;6302097;22;20293;-81
2024/01/05 05:18:52;;;;;;;15.95;9.75;;;4.50;99.90;;;;;;6300099;22;20494;-82
2024/01/05 05:21:18;;;;;;;16.10;9.77;;;4.50;99.90;;;;;;6299860;22;20027;-81
2024/01/05 05:23:43;;;;;;;15.82;9.65;;;4.60;99.90;;;;;;6300100;22;20382;-82
2024/01/05 05:26:09;;;;;;;20.65;9.27;;;4.60;99.90;;;;;;6302398;22;20045;-81
2024/01/05 05:28:35;;;;;;;14.30;9.20;;;4.60;99.90;;;;;;6300012;22;20458;-82
2024/01/05 05:31:01;;;;;;;16.98;9.73;;;4.60;99.90;;;;;;6300070;22;20189;-81
2024/01/05 05:33:26;;;;;;;14.00;9.02;;;4.60;99.90;;;;;;6300015;22;20027;-82
2024/01/05 05:35:52;;;;;;;16.27;9.70;;;4.70;99.90;;;;;;6300726;22;20081;-82
2024/01/05 05:38:19;;;;;;;14.68;9.30;;;4.70;99.90;;;;;;6300304;22;20451;-82
2024/01/05 05:40:44;;;;;;;16.30;9.10;;;4.70;99.90;;;;;;6300025;22;20011;-81
2024/01/05 05:43:11;;;;;;;16.25;8.77;;;4.70;99.90;;;;;;6300773;22;20462;-82
2024/01/05 05:45:37;;;;;;;18.70;10.45;;;4.60;99.90;;;;;;6300444;22;20037;-82
2024/01/05 05:48:04;;;;;;;16.10;9.35;;;4.70;99.90;;;;;;6300178;22;20015;-82
2024/01/05 05:50:30;;;;;;;14.07;9.00;;;4.80;99.90;;;;;;6300751;22;20011;-82
2024/01/05 05:52:55;;;;;;;14.13;9.23;;;4.70;99.90;;;;;;6274821;22;20025;-82
2024/01/05 05:55:21;;;;;;;15.85;10.32;;;4.70;99.90;;;;;;6300314;22;20085;-83
2024/01/05 05:57:47;;;;;;;19.77;10.90;;;4.70;99.90;;;;;;6274273;22;20023;-83
2024/01/05 06:00:13;;;;;;;18.00;10.25;;;4.70;99.90;;;;;;6300272;22;20141;-83
2024/01/05 06:02:39;;;;;;;16.67;10.20;;;4.80;99.90;;;;;;6299639;22;20435;-83
2024/01/05 06:05:05;;;;;;;23.15;11.30;;;4.70;99.90;;;;;;6299918;22;20023;-83
2024/01/05 06:07:31;;;;;;;22.75;11.85;;;4.80;99.90;;;;;;6300077;22;20047;-84
2024/01/05 06:09:58;;;;;;;19.95;11.65;;;4.80;99.90;;;;;;6299797;22;20058;-84
2024/01/05 06:12:24;;;;;;;20.50;12.23;;;4.90;99.90;;;;;;6274341;22;20012;-84
2024/01/05 06:14:50;;;;;;;20.30;10.82;;;4.90;99.90;;;;;;6299615;22;20049;-84
2024/01/05 06:17:18;;;;;;;20.08;10.90;;;4.90;99.90;;;;;;6273815;22;20011;-84
2024/01/05 06:19:44;;;;;;;21.65;12.45;;;4.90;99.90;;;;;;6299929;22;20007;-84
2024/01/05 06:22:10;;;;;;;17.67;11.38;;;4.90;99.90;;;;;;6299501;22;20313;-84
2024/01/05 06:24:36;;;;;;;19.85;11.65;;;4.90;99.90;;;;;;6274081;22;20031;-84
2024/01/05 06:27:02;;;;;;;20.95;11.45;;;4.90;99.90;;;;;;6299881;22;20300;-84
2024/01/05 06:29:27;;;;;;;20.20;12.52;;;4.90;99.90;;;;;;6299711;22;20038;-84
2024/01/05 06:31:53;;;;;;;21.05;12.20;;;4.90;99.90;;;;;;6273642;22;20011;-84
2024/01/05 06:34:19;;;;;;;18.67;11.88;;;5.00;99.90;;;;;;6273754;22;20094;-83
2024/01/05 06:36:44;;;;;;;22.70;12.00;;;5.00;99.90;;;;;;6299809;22;20027;-84
2024/01/05 06:39:10;;;;;;;23.10;12.27;;;5.00;99.90;;;;;;6273800;22;20467;-84
2024/01/05 06:41:36;;;;;;;20.67;12.55;;;5.00;99.90;;;;;;6299854;22;20015;-83
2024/01/05 06:44:02;;;;;;;21.40;12.50;;;5.00;99.90;;;;;;6300323;22;20025;-84
2024/01/05 06:46:28;;;;;;;21.73;11.77;;;5.10;99.90;;;;;;6299616;22;20069;-83
2024/01/05 06:48:56;;;;;;;29.25;12.50;;;5.00;99.90;;;;;;6299684;22;20028;-84
2024/01/05 06:51:23;;;;;;;21.58;11.88;;;5.10;99.90;;;;;;6300114;22;20019;-83
2024/01/05 06:53:49;;;;;;;24.55;14.30;;;5.00;99.90;;;;;;6300004;22;20316;-83
2024/01/05 06:56:17;;;;;;;25.08;13.20;;;5.10;99.90;;;;;;6299779;22;20011;-83
2024/01/05 06:58:43;;;;;;;26.40;14.77;;;5.10;99.90;;;;;;6299697;22;20038;-83
2024/01/05 07:01:09;;;;;;;26.05;12.88;;;5.10;99.90;;;;;;6274444;22;20292;-82
2024/01/05 07:03:34;;;;;;;22.42;12.25;;;5.10;99.90;;;;;;6302222;22;20112;-84
2024/01/05 07:06:01;;;;;;;25.15;13.80;;;5.20;99.90;;;;;;6303437;22;20354;-83
2024/01/05 07:08:27;;;;;;;29.17;14.18;;;5.10;99.90;;;;;;6303119;22;20177;-84
2024/01/05 07:10:53;;;;;;;22.48;12.35;;;5.10;99.90;;;;;;6302969;22;20092;-82
2024/01/05 07:13:18;;;;;;;25.75;14.32;;;5.10;99.90;;;;;;6302924;22;20041;-83
2024/01/05 07:15:44;;;;;;;28.25;14.23;;;5.10;99.90;;;;;;6305222;22;20015;-82
2024/01/05 07:18:10;;;;;;;24.13;12.95;;;5.10;99.90;;;;;;6303449;22;20019;-83
2024/01/05 07:20:35;;;;;;;22.50;13.02;;;5.10;99.90;;;;;;6303172;22;20102;-83
2024/01/05 07:23:01;;;;;;;26.48;12.88;;;5.10;99.90;;;;;;6276915;22;20017;-83
2024/01/05 07:25:27;;;;;;;24.05;12.18;;;5.20;99.90;;;;;;6302853;22;20398;-83
2024/01/05 07:27:52;;;;;;;21.00;12.25;;;5.10;99.90;;;;;;6303100;22;20030;-82
2024/01/05 07:30:18;;;;;;;29.67;12.75;;;5.20;99.90;;;;;;6302735;22;20404;-82
2024/01/05 07:32:45;;;;;;;22.85;12.02;;;5.20;99.90;;;;;;6302865;22;20030;-82
2024/01/05 07:35:11;;;;;;;29.70;15.75;;;5.20;99.90;;;;;;6277305;22;20156;-83
2024/01/05 07:37:38;;;;;;;24.85;13.50;;;5.20;99.90;;;;;;6302764;22;20427;-83
2024/01/05 07:40:04;;;;;;;28.02;14.38;;;5.30;99.90;;;;;;6302941;22;20393;-83
2024/01/05 07:42:31;;;;;;;25.25;13.63;;;5.30;99.90;;;;;;6302745;22;20019;-83
2024/01/05 07:44:57;;;;;;;26.17;13.73;;;5.50;99.90;;;;;;6302435;22;20357;-83
2024/01/05 07:47:24;;;;;;;26.88;12.73;;;5.40;99.90;;;;;;6275771;22;20019;-82
2024/01/05 07:49:49;;;;;;;23.75;14.27;;;5.40;99.90;;;;;;6275971;22;20041;-83
2024/01/05 07:52:16;;;;;;;24.13;12.55;;;5.50;99.90;;;;;;6301787;22;20019;-84
2024/01/05 07:54:43;;;;;;;22.15;12.52;;;5.50;99.90;;;;;;6302471;22;20019;-83
2024/01/05 07:57:09;;;;;;;24.83;12.80;;;5.50;99.90;;;;;;6276270;22;20011;-83
2024/01/05 07:59:34;;;;;;;21.95;13.25;;;5.50;99.90;;;;;;6302201;22;20062;-83
2024/01/05 08:02:00;;;;;;;22.15;13.48;;;5.50;99.90;;;;;;6303379;22;20026;-85
2024/01/05 08:04:25;;;;;;;24.38;11.98;;;5.60;99.90;;;;;;6303028;22;20053;-84
2024/01/05 08:06:51;;;;;;;27.48;13.18;;;5.60;99.90;;;;;;6304773;22;20034;-84
2024/01/05 08:09:17;;;;;;;27.30;12.73;;;5.70;99.90;;;;;;6303012;22;20023;-84
2024/01/05 08:11:43;;;;;;;20.60;11.35;;;5.60;99.90;;;;;;6305051;22;20022;-83
2024/01/05 08:14:09;;;;;;;27.65;12.88;;;5.70;99.90;;;;;;6302362;22;20030;-84
2024/01/05 08:16:36;;;;;;;24.52;12.68;;;5.70;99.90;;;;;;6275123;22;20011;-83
2024/01/05 08:19:01;;;;;;;26.05;11.77;;;5.70;99.90;;;;;;6275198;22;20047;-84
2024/01/05 08:21:27;;;;;;;32.63;12.43;;;5.80;99.90;;;;;;6301192;22;20019;-81
2024/01/05 08:23:53;;;;;;;24.48;11.60;;;5.80;99.90;;;;;;6301072;22;20098;-81
2024/01/05 08:26:19;;;;;;;21.90;11.93;;;5.80;99.90;;;;;;6274913;22;20098;-81
2024/01/05 08:28:45;;;;;;;23.42;11.93;;;5.80;99.90;;;;;;6304998;22;20022;-81
2024/01/05 08:31:11;;;;;;;23.83;10.55;;;5.90;99.90;;;;;;6279440;22;20459;-82
2024/01/05 08:33:37;;;;;;;24.95;12.27;;;5.90;99.90;;;;;;6305129;22;20048;-82
2024/01/05 08:36:03;;;;;;;17.92;10.30;;;6.00;99.90;;;;;;6304512;22;20533;-82
2024/01/05 08:38:28;;;;;;;24.38;10.82;;;6.00;99.90;;;;;;6304138;22;20022;-81
2024/01/05 08:40:54;;;;;;;23.30;11.55;;;6.00;99.90;;;;;;6303160;22;20015;-81
2024/01/05 08:43:20;;;;;;;19.35;10.68;;;6.00;99.90;;;;;;6301080;22;20023;-82
2024/01/05 08:45:46;;;;;;;21.98;11.05;;;6.00;99.90;;;;;;6301123;22;20126;-88
2024/01/05 08:48:14;;;;;;;22.23;11.50;;;6.10;99.90;;;;;;6301498;22;20019;-85
2024/01/05 08:50:40;;;;;;;22.80;10.90;;;6.10;99.90;;;;;;6301618;22;20439;-79
2024/01/05 08:53:06;;;;;;;25.63;10.88;;;6.10;99.90;;;;;;6300997;22;20090;-80
2024/01/05 08:55:32;;;;;;;20.75;10.32;;;6.20;99.90;;;;;;6300992;22;20642;-80
2024/01/05 08:57:58;;;;;;;23.92;11.15;;;6.20;99.90;;;;;;6301199;22;20095;-80
2024/01/05 09:00:25;;;;;;;23.10;11.93;;;6.20;99.90;;;;;;6302953;22;20054;-80
2024/01/05 09:02:52;;;;;;;22.30;10.85;;;6.20;99.90;;;;;;6303000;22;20023;-79
2024/01/05 09:05:17;;;;;;;20.58;9.82;;;6.30;99.90;;;;;;6302577;22;20142;-79
2024/01/05 09:07:43;;;;;;;23.50;10.43;;;6.30;99.90;;;;;;6303340;22;20080;-78
2024/01/05 09:10:09;;;;;;;17.42;8.40;;;6.30;99.90;;;;;;6301644;22;20390;-79
2024/01/05 09:12:35;;;;;;;15.85;7.95;;;6.40;99.90;;;;;;6301891;22;20019;-80
2024/01/05 09:15:00;;;;;;;16.55;8.07;;;6.40;99.90;;;;;;6300814;22;20211;-80
2024/01/05 09:17:26;;;;;;;14.95;8.27;;;6.50;99.90;;;;;;6300585;22;20015;-79
2024/01/05 09:19:52;;;;;;;13.73;7.90;;;6.50;99.90;;;;;;6300604;22;20479;-79
2024/01/05 09:22:17;;;;;;;16.10;7.28;;;6.50;99.90;;;;;;6300071;22;20022;-79
2024/01/05 09:24:43;;;;;;;16.33;7.88;;;6.50;99.90;;;;;;6300625;22;20069;-79
2024/01/05 09:27:09;;;;;;;13.95;6.75;;;6.60;99.90;;;;;;6274497;22;20107;-79
2024/01/05 09:29:34;;;;;;;19.88;7.07;;;6.60;99.90;;;;;;6275223;22;20065;-79
2024/01/05 09:32:01;;;;;;;15.35;6.90;;;6.50;99.90;;;;;;6300920;22;20019;-79
2024/01/05 09:34:26;;;;;;;10.88;6.88;;;6.60;99.90;;;;;;6300722;22;20042;-79
2024/01/05 09:36:53;;;;;;;14.13;6.82;;;6.60;99.90;;;;;;6275060;22;20019;-78
2024/01/05 09:39:19;;;;;;;17.95;7.72;;;6.60;99.90;;;;;;6274927;22;20069;-79
2024/01/05 09:41:48;;;;;;;10.70;7.25;;;6.70;99.90;;;;;;6300748;22;20347;-79
2024/01/05 09:44:15;;;;;;;21.95;7.20;;;6.70;99.90;;;;;;6300669;22;20034;-78
2024/01/05 09:46:42;;;;;;;17.67;6.95;;;6.70;99.90;;;;;;6300795;22;20320;-79
2024/01/05 09:49:09;;;;;;;10.80;5.05;;;6.70;99.90;;;;;;6274963;22;20007;-79
2024/01/05 09:51:35;;;;;;;6.63;3.95;;;6.80;99.90;;;;;;6274947;22;20011;-79
2024/01/05 09:54:02;;;;;;;11.32;3.60;;;6.80;99.90;;;;;;6300021;22;20055;-80
2024/01/05 09:56:29;;;;;;;10.00;3.80;;;6.80;99.90;;;;;;6300640;22;20085;-79
2024/01/05 09:58:55;;;;;;;9.65;4.05;;;6.90;99.90;;;;;;6300836;22;20047;-77
2024/01/05 10:01:28;;;;;;;8.93;4.38;;;6.90;99.90;;;;;;6274807;22;20022;-78
2024/01/05 10:03:59;;;;;;;10.25;3.00;;;6.80;99.90;;;;;;6300651;22;20038;-79
2024/01/05 10:06:25;;;;;;;7.80;4.13;;;6.90;99.90;;;;;;6300206;22;20071;-77
2024/01/05 10:08:56;;;;;;;12.52;5.00;;;6.90;99.90;;;;;;6300470;22;20054;-78
2024/01/05 10:11:30;;;;;;;15.07;4.85;;;6.90;99.90;;;;;;6300721;22;20282;-76
2024/01/05 10:14:02;;;;;;;9.98;4.63;;;6.90;99.90;;;;;;6300493;22;20058;-78
2024/01/05 10:16:37;;;;;;;12.93;5.72;;;6.90;99.90;;;;;;6300128;22;20026;-78
2024/01/05 10:19:21;;;;;;;9.55;4.97;;;6.90;99.90;;;;;;6299885;22;20088;-77
2024/01/05 10:21:48;;;;;;;13.25;5.53;;;7.00;99.90;;;;;;6299779;22;20066;-78
2024/01/05 10:24:15;;;;;;;8.98;4.22;;;7.00;99.90;;;;;;6301841;22;20046;-79
2024/01/05 10:26:41;;;;;;;8.60;4.43;;;7.00;99.90;;;;;;6300366;22;20027;-80
2024/01/05 10:29:16;;;;;;;9.48;4.20;;;7.00;99.90;;;;;;6300026;22;20019;-80
2024/01/05 10:31:42;;;;;;;7.00;4.13;;;7.00;99.90;;;;;;6300015;22;20023;-80
2024/01/05 10:34:08;;;;;;;8.65;3.33;;;7.00;99.90;;;;;;6299809;22;20454;-80
2024/01/05 10:36:34;;;;;;;4.68;2.70;;;7.00;99.90;;;;;;6274337;22;20011;-79
2024/01/05 10:39:02;;;;;;;5.53;2.45;;;7.00;99.90;;;;;;6299592;22;20080;-79
2024/01/05 10:41:28;;;;;;;7.13;3.22;;;7.00;99.90;;;;;;6298703;22;20011;-80
2024/01/05 10:43:55;;;;;;;5.93;2.75;;;7.00;99.90;;;;;;6300023;22;20112;-79
2024/01/05 10:46:22;;;;;;;9.18;2.75;;;7.00;99.90;;;;;;6299833;22;20022;-79
2024/01/05 10:48:47;;;;;;;4.88;2.17;;;7.00;99.90;;;;;;6300359;22;20042;-80
2024/01/05 10:51:20;;;;;;;7.03;2.17;;;7.00;99.90;;;;;;6302235;22;20086;-79
2024/01/05 10:53:47;;;;;;;4.50;3.28;;;7.00;99.90;;;;;;6300136;22;20019;-79
2024/01/05 10:56:13;;;;;;;6.93;2.63;;;6.90;99.90;;;;;;6300075;22;20086;-79
2024/01/05 10:58:39;;;;;;;6.45;2.75;;;7.00;99.90;;;;;;6300094;22;20015;-80
2024/01/05 11:01:09;;;;;;;5.10;1.90;;;7.00;99.90;;;;;;6302405;22;20014;-79
2024/01/05 11:03:43;;;;;;;3.40;2.17;;;7.00;99.90;;;;;;6300258;22;20027;-79
2024/01/05 11:06:10;;;;;;;2.63;1.67;;;7.00;99.90;;;;;;6299774;22;20086;-78
2024/01/05 11:08:56;;;;;;;4.53;2.78;;;7.00;99.90;;;;;;6275090;22;20023;-79
2024/01/05 11:11:31;;;;;;;3.42;2.35;;;6.90;99.90;;;;;;6301138;22;20053;-78
2024/01/05 11:14:19;;;;;;;4.25;1.83;;;7.00;99.90;;;;;;6300356;22;20023;-78
2024/01/05 11:17:22;;;;;;;2.33;1.38;;;6.90;99.90;;;;;;6275499;22;20011;-79
2024/01/05 11:20:29;;;;;;;2.42;1.50;;;6.90;99.90;;;;;;6300746;22;20025;-79
2024/01/05 11:22:56;;;;;;;1.85;1.50;;;6.90;99.90;;;;;;6275206;22;20399;-79
2024/01/05 11:25:22;;;;;;;2.72;1.33;;;6.90;99.90;;;;;;6301196;22;20031;-78
2024/01/05 11:27:48;;;;;;;1.80;1.70;;;6.90;99.90;;;;;;6275327;22;20181;-78
2024/01/05 11:30:14;;;;;;;1.50;1.40;;;7.10;99.90;;;;;;6299947;22;20015;-77
2024/01/05 11:32:49;;;;;;;2.28;1.23;;;7.10;99.90;;;;;;6299591;22;20439;-78
2024/01/05 11:35:19;;;;;;;1.92;1.20;;;7.00;99.90;;;;;;6299901;22;20094;-75
2024/01/05 11:37:46;;;;;;;2.63;1.33;;;7.00;99.90;;;;;;6300755;22;20034;-77
2024/01/05 11:40:36;;;;;;;1.65;1.10;;;7.10;99.90;;;;;;6302718;22;20011;-78
2024/01/05 11:43:30;;;;;;;2.25;1.20;;;7.10;99.90;;;;;;6300482;22;20023;-78
2024/01/05 11:45:56;;;;;;;1.23;1.10;;;7.00;99.90;;;;;;6299902;22;20094;-78
2024/01/05 11:48:34;;;;;;;1.08;0.98;;;7.00;99.90;;;;;;6300872;22;20070;-78
2024/01/05 11:51:02;;;;;;;1.48;1.38;;;7.00;99.90;;;;;;6275825;22;20141;-78
2024/01/05 11:53:28;;;;;;;1.73;1.63;;;7.00;99.90;;;;;;6301943;22;20049;-78
2024/01/05 11:55:56;;;;;;;2.08;1.10;;;7.00;99.90;;;;;;6302373;22;20029;-78
2024/01/05 11:58:33;;;;;;;1.70;1.30;;;7.00;99.90;;;;;;6302102;22;20419;-78
2024/01/05 12:01:00;;;;;;;2.10;1.23;;;6.90;99.90;;;;;;6302074;22;20043;-78
2024/01/05 12:03:26;;;;;;;1.33;1.23;;;6.90;99.90;;;;;;6301870;22;20011;-78
2024/01/05 12:05:54;;;;;;;1.50;1.40;;;6.90;99.90;;;;;;6301442;22;20074;-77
2024/01/05 12:08:23;;;;;;;1.77;1.67;;;6.90;99.90;;;;;;6302381;22;20057;-78
2024/01/05 12:11:03;;;;;;;6.40;1.67;;;6.80;99.90;;;;;;6302161;22;20019;-78
2024/01/05 12:13:33;;;;;;;2.33;2.13;;;6.80;99.90;;;;;;6301975;22;20073;-77
2024/01/05 12:16:02;;;;;;;4.90;3.15;;;6.80;99.90;;;;;;6275957;22;20153;-77
2024/01/05 12:18:30;;;;;;;4.15;2.20;;;6.70;99.90;;;;;;6301312;22;20087;-77
2024/01/05 12:21:01;;;;;;;8.02;4.40;;;6.80;99.90;;;;;;6301404;22;20018;-78
2024/01/05 12:23:28;;;;;;;3.65;2.80;;;6.90;99.90;;;;;;6301469;22;20019;-77
2024/01/05 12:26:05;;;;;;;3.60;2.72;;;6.90;99.90;;;;;;6303702;22;20380;-77
2024/01/05 12:28:33;;;;;;;3.13;2.83;;;6.90;99.90;;;;;;6303399;22;20092;-78
2024/01/05 12:31:00;;;;;;;1.67;1.52;;;6.90;99.90;;;;;;6301452;22;20090;-77
2024/01/05 12:33:27;;;;;;;2.10;1.90;;;6.80;99.90;;;;;;6299186;22;20019;-74
2024/01/05 12:35:53;;;;;;;3.47;2.47;;;6.80;99.90;;;;;;6301381;22;20045;-75
2024/01/05 12:38:25;;;;;;;1.95;1.80;;;6.80;99.90;;;;;;6300806;22;20035;-76
2024/01/05 12:41:11;;;;;;;1.80;1.60;;;6.80;99.90;;;;;;6301101;22;20023;-75
2024/01/05 12:43:43;;;;;;;2.17;1.83;;;6.80;99.90;;;;;;6300734;22;20015;-76
2024/01/05 12:46:09;;;;;;;1.48;1.38;;;6.80;99.90;;;;;;6301022;22;20022;-76
2024/01/05 12:48:35;;;;;;;1.42;1.33;;;6.70;99.90;;;;;;6300481;22;20015;-75